Time;durP1;ratioP1;P1;durP2;ratioP2;P2;SDS_P1;SDS_P2;PMS_P1;PMS_P2;Temp;Humidity;BMP_temperature;BMP_pressure;BME280_temperature;BME280_humidity;BME280_pressure;Samples;Min_cycle;Max_cycle;Signal;HPM_P1;HPM_P2
2021/04/13 00:00:28;;;;;;;0.87;0.70;;;20.60;38.40;;;;;;5012801;28;20431;-71
2021/04/13 00:02:54;;;;;;;0.70;0.50;;;20.60;38.40;;;;;;5001545;28;20470;-71
2021/04/13 00:05:28;;;;;;;0.50;0.50;;;20.60;38.00;;;;;;5007659;28;20419;-72
2021/04/13 00:07:55;;;;;;;0.80;0.75;;;20.60;38.40;;;;;;4988747;28;20534;-71
2021/04/13 00:10:25;;;;;;;0.80;0.70;;;20.50;38.30;;;;;;5011300;28;20857;-74
2021/04/13 00:12:51;;;;;;;0.60;0.50;;;20.50;38.30;;;;;;5009673;28;20452;-71
2021/04/13 00:15:19;;;;;;;1.30;0.70;;;20.50;38.30;;;;;;5007143;28;20415;-72
2021/04/13 00:17:45;;;;;;;1.77;0.80;;;20.50;38.30;;;;;;5004827;28;20432;-71
2021/04/13 00:20:14;;;;;;;2.65;0.82;;;20.50;38.30;;;;;;5007541;28;20428;-72
2021/04/13 00:22:41;;;;;;;0.70;0.70;;;20.50;38.30;;;;;;5006512;28;20488;-72
2021/04/13 00:25:09;;;;;;;0.80;0.63;;;20.50;38.30;;;;;;4998961;28;20412;-70
2021/04/13 00:27:35;;;;;;;0.73;0.70;;;20.50;38.30;;;;;;5008187;28;20555;-70
2021/04/13 00:30:10;;;;;;;1.70;0.90;;;20.50;38.30;;;;;;5005893;28;20423;-71
2021/04/13 00:32:37;;;;;;;2.78;0.80;;;20.50;38.30;;;;;;5006697;28;20502;-71
2021/04/13 00:35:15;;;;;;;1.25;0.70;;;20.50;38.30;;;;;;5003019;28;20413;-72
2021/04/13 00:37:42;;;;;;;0.60;0.50;;;20.50;38.30;;;;;;4999908;28;20407;-72
2021/04/13 00:40:21;;;;;;;1.20;0.60;;;20.50;38.30;;;;;;4996170;28;20917;-71
2021/04/13 00:42:48;;;;;;;0.80;0.60;;;20.50;38.30;;;;;;5005328;28;20498;-71
2021/04/13 00:45:16;;;;;;;2.33;0.73;;;20.50;38.30;;;;;;5003687;28;20416;-72
2021/04/13 00:47:43;;;;;;;1.20;0.50;;;20.50;38.30;;;;;;4997933;28;20886;-73
2021/04/13 00:50:11;;;;;;;0.90;0.70;;;20.50;38.30;;;;;;5007786;28;20458;-72
2021/04/13 00:52:38;;;;;;;2.00;0.80;;;20.60;38.40;;;;;;5002736;28;20842;-71
2021/04/13 00:55:07;;;;;;;1.23;0.70;;;20.60;38.40;;;;;;5008889;28;20505;-71
2021/04/13 00:57:35;;;;;;;3.78;0.70;;;20.60;37.90;;;;;;5009017;28;20456;-71
2021/04/13 01:00:01;;;;;;;1.00;0.80;;;20.60;38.40;;;;;;5003077;28;20832;-71
2021/04/13 01:02:28;;;;;;;1.07;0.60;;;20.60;38.40;;;;;;5006371;28;20477;-71
2021/04/13 01:04:56;;;;;;;1.50;0.60;;;20.50;38.30;;;;;;5002913;28;20418;-72
2021/04/13 01:07:29;;;;;;;0.80;0.52;;;20.50;38.30;;;;;;5002137;28;20502;-70
2021/04/13 01:10:01;;;;;;;0.70;0.70;;;20.60;38.40;;;;;;5002360;28;20406;-72
2021/04/13 01:12:30;;;;;;;0.80;0.70;;;20.60;38.40;;;;;;5002258;28;20507;-71
2021/04/13 01:14:57;;;;;;;1.10;0.60;;;20.60;38.40;;;;;;5003741;28;20424;-71
2021/04/13 01:17:23;;;;;;;1.35;0.73;;;20.60;38.40;;;;;;5004978;28;20510;-70
2021/04/13 01:19:52;;;;;;;1.00;0.90;;;20.60;38.40;;;;;;5007352;28;20992;-71
2021/04/13 01:22:25;;;;;;;1.80;0.70;;;20.60;38.00;;;;;;5004802;28;20455;-70
2021/04/13 01:24:52;;;;;;;1.83;0.90;;;20.50;38.00;;;;;;5006334;28;20938;-71
2021/04/13 01:27:18;;;;;;;1.10;0.90;;;20.50;38.30;;;;;;5007285;28;20423;-71
2021/04/13 01:29:46;;;;;;;0.60;0.60;;;20.50;38.30;;;;;;5006761;28;20428;-71
2021/04/13 01:32:12;;;;;;;1.27;0.70;;;20.50;38.30;;;;;;5007968;28;20432;-70
2021/04/13 01:35:08;;;;;;;1.63;0.68;;;20.50;38.30;;;;;;5001832;28;20433;-71
2021/04/13 01:37:47;;;;;;;0.90;0.60;;;20.40;37.70;;;;;;4975670;28;20430;-71
2021/04/13 01:40:19;;;;;;;1.87;0.70;;;20.40;38.50;;;;;;4984504;28;20463;-72
2021/04/13 01:42:46;;;;;;;1.00;0.60;;;20.40;38.20;;;;;;5002144;28;20412;-73
2021/04/13 01:45:14;;;;;;;1.60;0.75;;;20.40;37.60;;;;;;4995130;28;20431;-71
2021/04/13 01:47:41;;;;;;;0.70;0.60;;;20.40;38.20;;;;;;5009918;28;21521;-71
2021/04/13 01:50:08;;;;;;;1.40;0.70;;;20.40;38.20;;;;;;5001803;28;20428;-72
2021/04/13 01:52:35;;;;;;;1.60;0.80;;;20.40;38.20;;;;;;5005160;28;20427;-71
2021/04/13 01:55:06;;;;;;;1.10;0.65;;;20.50;38.30;;;;;;5006088;28;20947;-71
2021/04/13 01:57:36;;;;;;;1.20;0.75;;;20.50;38.30;;;;;;4995655;28;20447;-70
2021/04/13 02:00:09;;;;;;;2.10;0.80;;;20.50;38.30;;;;;;4977119;28;20447;-71
2021/04/13 02:02:37;;;;;;;1.00;0.50;;;20.50;38.30;;;;;;5002549;28;20420;-72
2021/04/13 02:05:08;;;;;;;1.80;0.60;;;20.60;38.40;;;;;;5004168;28;20415;-72
2021/04/13 02:07:42;;;;;;;1.70;0.55;;;20.60;38.40;;;;;;5001536;28;20958;-70
2021/04/13 02:10:14;;;;;;;2.00;0.80;;;20.60;38.40;;;;;;5005634;28;20433;-71
2021/04/13 02:12:41;;;;;;;0.90;0.60;;;20.60;38.40;;;;;;5003884;28;20496;-73
2021/04/13 02:15:10;;;;;;;1.70;0.60;;;20.50;38.30;;;;;;4997520;28;20858;-71
2021/04/13 02:17:39;;;;;;;2.00;0.60;;;20.50;38.00;;;;;;5017934;28;20426;-70
2021/04/13 02:20:07;;;;;;;5.07;0.68;;;20.50;37.90;;;;;;5006224;28;20789;-71
2021/04/13 02:22:33;;;;;;;1.10;0.70;;;20.50;37.90;;;;;;5005403;28;20425;-70
2021/04/13 02:25:00;;;;;;;1.67;0.70;;;20.50;38.10;;;;;;5005675;28;20512;-71
2021/04/13 02:27:28;;;;;;;0.90;0.70;;;20.50;38.10;;;;;;5006717;28;20497;-73
2021/04/13 02:29:55;;;;;;;0.90;0.60;;;20.50;38.30;;;;;;5003051;28;20419;-71
2021/04/13 02:32:22;;;;;;;1.10;0.60;;;20.50;38.30;;;;;;5005145;28;20422;-71
2021/04/13 02:34:50;;;;;;;1.50;0.70;;;20.50;38.30;;;;;;5005948;28;20446;-73
2021/04/13 02:37:18;;;;;;;1.58;0.73;;;20.50;38.30;;;;;;5002654;28;20433;-71
2021/04/13 02:39:44;;;;;;;1.45;0.90;;;20.50;38.30;;;;;;5003329;28;20494;-72
2021/04/13 02:42:16;;;;;;;0.60;0.60;;;20.50;38.30;;;;;;5006212;28;20455;-71
2021/04/13 02:44:42;;;;;;;0.50;0.50;;;20.50;38.30;;;;;;4999123;28;20410;-71
2021/04/13 02:47:11;;;;;;;1.15;0.60;;;20.50;38.30;;;;;;5008386;28;20830;-72
2021/04/13 02:49:38;;;;;;;1.00;0.70;;;20.50;38.20;;;;;;5014281;28;20467;-72
2021/04/13 02:52:06;;;;;;;1.15;0.65;;;20.50;38.30;;;;;;5007888;28;20415;-72
2021/04/13 02:54:36;;;;;;;1.70;1.00;;;20.50;38.30;;;;;;5003916;28;20431;-70
2021/04/13 02:57:05;;;;;;;1.05;0.80;;;20.40;38.20;;;;;;5004330;28;20427;-72
2021/04/13 02:59:32;;;;;;;1.33;0.60;;;20.50;38.30;;;;;;5008674;28;20515;-72
2021/04/13 03:02:01;;;;;;;2.33;0.70;;;20.40;38.20;;;;;;5009778;28;20415;-71
2021/04/13 03:04:27;;;;;;;1.60;1.00;;;20.40;38.20;;;;;;5001383;28;20919;-71
2021/04/13 03:06:54;;;;;;;0.73;0.73;;;20.40;38.20;;;;;;5004084;28;20426;-72
2021/04/13 03:09:22;;;;;;;1.80;0.70;;;20.40;38.20;;;;;;5001565;28;20446;-71
2021/04/13 03:11:49;;;;;;;1.77;0.70;;;20.40;37.80;;;;;;5006071;28;20414;-71
2021/04/13 03:14:17;;;;;;;1.60;0.90;;;20.50;37.40;;;;;;5004925;28;20431;-71
2021/04/13 03:16:45;;;;;;;3.57;0.70;;;20.50;37.20;;;;;;5003146;28;20423;-71
2021/04/13 03:19:13;;;;;;;3.00;0.77;;;20.50;37.10;;;;;;5004779;28;20456;-70
2021/04/13 03:21:41;;;;;;;2.30;0.70;;;20.50;36.90;;;;;;5003449;28;20409;-72
2021/04/13 03:24:13;;;;;;;2.70;0.80;;;20.50;36.90;;;;;;5007255;28;20779;-71
2021/04/13 03:26:44;;;;;;;2.10;0.77;;;20.60;37.00;;;;;;5005644;28;20778;-72
2021/04/13 03:29:13;;;;;;;0.90;0.60;;;20.60;37.10;;;;;;5006978;28;20431;-72
2021/04/13 03:31:39;;;;;;;1.58;0.70;;;20.60;37.20;;;;;;5007197;28;20980;-72
2021/04/13 03:34:05;;;;;;;1.10;0.60;;;20.60;37.40;;;;;;5004697;28;20481;-72
2021/04/13 03:36:31;;;;;;;1.70;1.10;;;20.70;37.20;;;;;;5009255;28;20422;-72
2021/04/13 03:39:00;;;;;;;1.13;0.73;;;20.70;37.00;;;;;;5005878;28;20426;-71
2021/04/13 03:41:26;;;;;;;0.98;0.70;;;20.70;37.00;;;;;;5003452;28;20795;-72
2021/04/13 03:43:58;;;;;;;0.82;0.82;;;20.70;36.70;;;;;;4998183;28;20519;-73
2021/04/13 03:46:24;;;;;;;0.80;0.63;;;20.80;36.80;;;;;;4985733;28;20426;-72
2021/04/13 03:48:50;;;;;;;1.88;0.70;;;20.80;36.70;;;;;;5004394;28;20423;-73
2021/04/13 03:51:23;;;;;;;2.05;0.70;;;20.70;36.70;;;;;;5005404;28;20421;-73
2021/04/13 03:53:49;;;;;;;1.40;0.73;;;20.70;36.90;;;;;;5004491;28;20421;-72
2021/04/13 03:56:17;;;;;;;2.20;0.80;;;20.70;36.90;;;;;;5007650;28;20429;-72
2021/04/13 03:58:45;;;;;;;1.00;0.60;;;20.70;37.00;;;;;;5000512;28;20468;-72
2021/04/13 04:01:15;;;;;;;1.23;0.60;;;20.60;37.20;;;;;;5004673;28;20421;-74
2021/04/13 04:03:44;;;;;;;1.20;0.60;;;20.60;37.20;;;;;;4979317;28;20406;-73
2021/04/13 04:06:12;;;;;;;1.17;0.60;;;20.60;37.30;;;;;;5001521;28;21416;-71
2021/04/13 04:08:41;;;;;;;0.90;0.60;;;20.60;37.30;;;;;;4991414;28;20465;-72
2021/04/13 04:11:08;;;;;;;1.10;0.80;;;20.60;37.30;;;;;;5008009;28;20440;-73
2021/04/13 04:13:35;;;;;;;0.70;0.70;;;20.60;37.40;;;;;;5007408;28;20412;-73
2021/04/13 04:16:10;;;;;;;0.70;0.70;;;20.60;37.40;;;;;;5007354;28;20498;-73
2021/04/13 04:18:40;;;;;;;0.93;0.60;;;20.60;37.40;;;;;;5007027;28;20419;-72
2021/04/13 04:21:14;;;;;;;2.95;0.90;;;20.60;37.10;;;;;;5004835;28;20403;-73
2021/04/13 04:23:40;;;;;;;0.80;0.60;;;20.60;37.10;;;;;;4989985;28;20409;-73
2021/04/13 04:26:07;;;;;;;1.17;1.00;;;20.60;37.20;;;;;;5010415;28;20426;-72
2021/04/13 04:28:34;;;;;;;1.80;0.70;;;20.60;37.10;;;;;;5008411;28;20412;-72
2021/04/13 04:31:20;;;;;;;1.50;0.70;;;20.70;37.00;;;;;;5003456;28;20432;-71
2021/04/13 04:33:47;;;;;;;1.80;0.80;;;20.70;36.80;;;;;;5004606;28;20413;-72
2021/04/13 04:36:26;;;;;;;1.85;0.80;;;20.80;36.70;;;;;;5006790;28;20424;-72
2021/04/13 04:38:53;;;;;;;4.50;0.80;;;20.80;36.60;;;;;;5006632;28;20445;-71
2021/04/13 04:41:34;;;;;;;1.55;0.60;;;20.90;36.60;;;;;;5008247;28;20422;-72
2021/04/13 04:44:02;;;;;;;1.88;0.80;;;20.90;36.50;;;;;;5004974;28;20496;-73
2021/04/13 04:46:36;;;;;;;2.00;0.60;;;20.90;36.60;;;;;;4966107;28;20508;-72
2021/04/13 04:49:05;;;;;;;0.95;0.80;;;20.90;36.60;;;;;;4984669;28;20908;-73
2021/04/13 04:51:31;;;;;;;0.80;0.50;;;20.80;36.50;;;;;;5003170;28;21160;-72
2021/04/13 04:53:57;;;;;;;1.20;0.50;;;20.80;36.40;;;;;;5022412;28;20401;-73
2021/04/13 04:56:24;;;;;;;0.80;0.70;;;20.80;36.60;;;;;;5035336;28;20416;-73
2021/04/13 04:58:50;;;;;;;2.05;0.88;;;20.80;36.70;;;;;;5025198;28;20409;-74
2021/04/13 05:01:16;;;;;;;0.95;0.70;;;20.80;36.90;;;;;;5014226;28;20409;-71
2021/04/13 05:03:42;;;;;;;1.80;0.70;;;20.70;36.80;;;;;;4999566;28;20533;-72
2021/04/13 05:06:09;;;;;;;1.50;0.80;;;20.70;37.00;;;;;;4978179;28;20428;-72
2021/04/13 05:08:36;;;;;;;1.50;0.80;;;20.70;36.50;;;;;;4986601;28;20435;-73
2021/04/13 05:11:02;;;;;;;1.20;0.60;;;20.70;36.50;;;;;;5003858;28;20433;-73
2021/04/13 05:13:28;;;;;;;1.40;0.80;;;20.70;36.50;;;;;;4988535;28;20493;-74
2021/04/13 05:15:54;;;;;;;2.95;1.08;;;20.70;37.20;;;;;;4986665;28;20430;-72
2021/04/13 05:18:20;;;;;;;5.88;1.60;;;20.60;37.70;;;;;;5001983;28;20409;-72
2021/04/13 05:20:46;;;;;;;4.30;0.90;;;20.60;37.30;;;;;;4992307;28;20467;-73
2021/04/13 05:23:14;;;;;;;5.50;1.67;;;20.60;36.70;;;;;;5005328;28;20475;-71
2021/04/13 05:25:40;;;;;;;3.13;0.90;;;20.60;36.60;;;;;;5005181;28;20428;-70
2021/04/13 05:28:06;;;;;;;1.60;0.93;;;20.60;36.80;;;;;;5000342;28;20431;-72
2021/04/13 05:30:32;;;;;;;1.35;0.60;;;20.60;36.70;;;;;;5003968;28;20411;-72
2021/04/13 05:32:58;;;;;;;2.95;0.93;;;20.60;36.60;;;;;;5003381;28;20426;-72
2021/04/13 05:35:24;;;;;;;2.92;1.00;;;20.70;36.40;;;;;;4998517;28;20415;-71
2021/04/13 05:37:51;;;;;;;1.50;0.70;;;20.70;36.30;;;;;;5003048;28;20414;-71
2021/04/13 05:40:20;;;;;;;3.40;0.77;;;20.70;36.50;;;;;;5005404;28;22335;-71
2021/04/13 05:42:46;;;;;;;3.10;0.90;;;20.70;36.40;;;;;;5005433;28;20413;-71
2021/04/13 05:45:14;;;;;;;1.75;0.80;;;20.70;36.40;;;;;;4993863;28;21070;-72
2021/04/13 05:47:40;;;;;;;2.10;0.90;;;20.70;37.20;;;;;;5001096;28;20432;-71
2021/04/13 05:50:07;;;;;;;1.48;0.98;;;20.70;36.70;;;;;;4980975;28;20560;-73
2021/04/13 05:52:34;;;;;;;1.50;0.90;;;20.70;36.60;;;;;;4996457;28;20407;-70
2021/04/13 05:55:00;;;;;;;1.67;0.80;;;20.70;36.70;;;;;;4994222;28;20436;-72
2021/04/13 05:57:29;;;;;;;3.65;0.90;;;20.70;37.00;;;;;;4972356;28;20446;-71
2021/04/13 05:59:55;;;;;;;1.48;0.77;;;20.70;37.00;;;;;;5006734;28;20427;-74
2021/04/13 06:02:21;;;;;;;3.45;0.95;;;20.60;36.80;;;;;;5005624;28;20419;-72
2021/04/13 06:04:49;;;;;;;1.30;0.90;;;20.70;37.70;;;;;;5002620;28;20456;-72
2021/04/13 06:07:16;;;;;;;1.70;0.80;;;20.70;36.90;;;;;;4997325;28;20424;-72
2021/04/13 06:09:42;;;;;;;2.00;0.90;;;20.70;37.00;;;;;;4999830;28;20424;-71
2021/04/13 06:12:09;;;;;;;2.20;0.70;;;20.70;37.00;;;;;;5003971;28;20428;-72
2021/04/13 06:14:36;;;;;;;3.67;0.80;;;20.70;37.10;;;;;;4994769;28;20420;-73
2021/04/13 06:17:03;;;;;;;3.70;1.00;;;20.70;38.00;;;;;;4995187;28;20428;-71
2021/04/13 06:19:30;;;;;;;0.77;0.70;;;20.70;37.40;;;;;;4995790;28;20554;-73
2021/04/13 06:21:56;;;;;;;0.82;0.50;;;20.60;37.60;;;;;;5004281;28;20501;-72
2021/04/13 06:24:22;;;;;;;3.83;0.90;;;20.60;37.50;;;;;;5001737;28;20453;-72
2021/04/13 06:26:48;;;;;;;2.60;0.75;;;20.70;37.70;;;;;;4997040;28;21228;-72
2021/04/13 06:29:14;;;;;;;2.40;0.63;;;20.70;37.70;;;;;;5001164;28;20436;-72
2021/04/13 06:31:41;;;;;;;2.20;0.80;;;20.70;37.70;;;;;;5000849;28;20482;-72
2021/04/13 06:34:07;;;;;;;1.70;0.63;;;20.70;37.60;;;;;;4995177;28;20443;-73
2021/04/13 06:36:33;;;;;;;2.53;0.60;;;20.80;37.80;;;;;;4999084;28;20438;-72
2021/04/13 06:39:00;;;;;;;2.25;1.20;;;20.80;37.80;;;;;;4999772;28;20419;-71
2021/04/13 06:41:46;;;;;;;1.35;0.60;;;20.80;38.60;;;;;;5002210;28;20423;-72
2021/04/13 06:44:50;;;;;;;4.60;0.90;;;20.80;37.80;;;;;;4994096;28;20405;-72
2021/04/13 06:47:19;;;;;;;1.30;0.77;;;20.80;38.10;;;;;;4971400;28;20416;-73
2021/04/13 06:50:04;;;;;;;0.80;0.80;;;20.70;38.40;;;;;;5005810;28;20416;-72
2021/04/13 06:52:37;;;;;;;3.33;0.85;;;20.70;38.50;;;;;;5001926;28;21049;-72
2021/04/13 06:55:10;;;;;;;1.70;0.80;;;20.60;38.40;;;;;;4996804;28;21198;-73
2021/04/13 06:57:42;;;;;;;0.60;0.50;;;20.60;38.40;;;;;;5001138;28;20493;-71
2021/04/13 07:00:32;;;;;;;2.20;0.73;;;20.60;38.40;;;;;;5003012;28;20424;-71
2021/04/13 07:03:15;;;;;;;1.10;0.80;;;20.60;38.40;;;;;;4991598;28;20535;-72
2021/04/13 07:05:43;;;;;;;1.50;0.60;;;20.50;38.30;;;;;;5000065;28;20440;-72
2021/04/13 07:08:13;;;;;;;2.60;0.90;;;20.50;38.30;;;;;;5003844;28;20424;-71
2021/04/13 07:10:44;;;;;;;2.35;0.60;;;20.60;38.40;;;;;;5004909;28;20424;-70
2021/04/13 07:13:13;;;;;;;1.90;1.00;;;20.60;38.40;;;;;;4989886;28;21014;-72
2021/04/13 07:15:43;;;;;;;1.85;0.80;;;20.60;38.40;;;;;;5000090;28;20439;-71
2021/04/13 07:18:13;;;;;;;0.80;0.60;;;20.60;38.40;;;;;;4999696;28;20420;-71
2021/04/13 07:20:40;;;;;;;1.38;0.70;;;20.70;38.50;;;;;;5007258;28;20433;-72
2021/04/13 07:23:09;;;;;;;1.20;0.70;;;20.70;38.50;;;;;;5001802;28;20416;-72
2021/04/13 07:25:38;;;;;;;2.70;0.70;;;20.70;38.40;;;;;;5002821;28;20793;-71
2021/04/13 07:28:07;;;;;;;1.90;0.90;;;20.70;38.50;;;;;;4985492;28;20423;-72
2021/04/13 07:30:36;;;;;;;2.45;0.82;;;20.60;38.40;;;;;;5000627;28;20449;-72
2021/04/13 07:33:04;;;;;;;1.80;0.75;;;20.60;38.40;;;;;;4994222;28;21009;-72
2021/04/13 07:35:33;;;;;;;1.10;0.60;;;20.60;38.40;;;;;;4994776;28;21071;-73
2021/04/13 07:38:01;;;;;;;1.40;0.60;;;20.50;38.30;;;;;;5002131;28;20834;-71
2021/04/13 07:40:29;;;;;;;1.40;0.70;;;20.50;38.30;;;;;;5004295;28;20419;-71
2021/04/13 07:42:57;;;;;;;0.90;0.60;;;20.50;38.30;;;;;;5003070;28;20418;-71
2021/04/13 07:45:29;;;;;;;0.77;0.60;;;20.50;38.30;;;;;;4989953;28;20473;-71
2021/04/13 07:48:15;;;;;;;1.40;0.70;;;20.50;38.30;;;;;;5008201;28;20418;-71
2021/04/13 07:50:53;;;;;;;1.70;0.70;;;20.60;38.40;;;;;;5001301;28;20412;-71
2021/04/13 07:53:26;;;;;;;1.67;0.70;;;20.60;38.40;;;;;;5002803;28;20437;-72
2021/04/13 07:55:55;;;;;;;2.30;0.70;;;20.60;38.40;;;;;;5001291;28;20809;-71
2021/04/13 07:58:32;;;;;;;1.75;0.60;;;20.60;38.40;;;;;;4993225;28;20421;-72
2021/04/13 08:00:58;;;;;;;1.85;0.70;;;20.50;38.30;;;;;;4982434;28;20427;-72
2021/04/13 08:03:25;;;;;;;0.82;0.73;;;20.50;38.30;;;;;;5006094;28;20427;-71
2021/04/13 08:05:53;;;;;;;0.80;0.60;;;20.50;38.30;;;;;;4999589;28;20423;-71
2021/04/13 08:08:23;;;;;;;1.10;0.80;;;20.50;38.30;;;;;;5002797;28;20428;-71
2021/04/13 08:10:49;;;;;;;2.63;0.93;;;20.50;38.30;;;;;;5003116;28;20416;-72
2021/04/13 08:13:27;;;;;;;1.73;0.63;;;20.50;38.30;;;;;;5001916;28;20428;-72
2021/04/13 08:15:53;;;;;;;1.40;0.70;;;20.50;38.30;;;;;;4993805;28;20480;-71
2021/04/13 08:18:24;;;;;;;1.60;0.70;;;20.50;38.30;;;;;;5015381;28;20429;-71
2021/04/13 08:20:50;;;;;;;1.37;0.70;;;20.50;38.30;;;;;;5004771;28;20434;-73
2021/04/13 08:23:36;;;;;;;1.80;0.90;;;20.50;38.30;;;;;;4991886;28;20487;-72
2021/04/13 08:26:15;;;;;;;1.27;0.77;;;20.50;38.30;;;;;;5000624;28;20425;-70
2021/04/13 08:28:43;;;;;;;1.40;1.00;;;20.40;38.20;;;;;;4999305;28;20465;-73
2021/04/13 08:34:05;;;;;;;1.60;0.80;;;20.40;38.20;;;;;;5002790;28;20486;-71
2021/04/13 08:36:36;;;;;;;2.70;1.08;;;20.50;38.30;;;;;;4998553;28;20486;-72
2021/04/13 08:39:05;;;;;;;2.17;0.80;;;20.50;38.30;;;;;;5000157;28;20413;-71
2021/04/13 08:41:35;;;;;;;1.10;0.50;;;20.60;38.40;;;;;;5005506;28;20419;-71
2021/04/13 08:44:22;;;;;;;1.60;0.80;;;20.70;38.50;;;;;;5001551;28;20452;-72
2021/04/13 08:46:50;;;;;;;1.48;0.70;;;20.70;38.50;;;;;;5002261;28;20434;-72
2021/04/13 08:49:30;;;;;;;2.75;1.20;;;20.80;38.60;;;;;;5000998;28;20444;-72
2021/04/13 08:52:29;;;;;;;3.97;0.83;;;20.80;38.60;;;;;;4994727;28;20412;-71
2021/04/13 08:55:04;;;;;;;2.08;0.80;;;20.80;38.60;;;;;;4989433;28;20469;-71
2021/04/13 08:57:32;;;;;;;1.38;0.75;;;20.80;38.60;;;;;;4995499;28;21734;-71
2021/04/13 09:00:00;;;;;;;2.97;0.80;;;20.80;38.50;;;;;;4998026;28;20833;-71
2021/04/13 09:02:27;;;;;;;1.52;0.90;;;20.80;38.60;;;;;;5004497;28;20415;-70
2021/04/13 09:05:08;;;;;;;2.08;0.77;;;20.70;38.50;;;;;;5002310;28;20423;-73
2021/04/13 09:07:42;;;;;;;2.70;0.90;;;20.70;38.50;;;;;;4998278;28;20422;-71
2021/04/13 09:10:24;;;;;;;2.63;0.90;;;20.70;38.50;;;;;;4997595;28;20432;-72
2021/04/13 09:12:53;;;;;;;3.17;0.90;;;20.70;38.40;;;;;;4985464;28;20481;-73
2021/04/13 09:15:24;;;;;;;2.70;0.90;;;20.70;38.50;;;;;;5006684;28;20769;-71
2021/04/13 09:17:58;;;;;;;5.20;1.30;;;20.70;38.40;;;;;;4989510;28;20417;-72
2021/04/13 09:20:31;;;;;;;2.38;1.00;;;20.70;38.50;;;;;;4999305;28;20411;-71
2021/04/13 09:23:09;;;;;;;2.10;1.03;;;20.70;38.50;;;;;;5001152;28;20410;-71
2021/04/13 09:25:37;;;;;;;1.50;1.00;;;20.70;38.40;;;;;;4987220;28;20967;-71
2021/04/13 09:28:08;;;;;;;2.80;1.20;;;20.70;38.40;;;;;;5001275;28;20418;-71
2021/04/13 09:30:35;;;;;;;2.60;0.90;;;20.70;38.40;;;;;;5001082;28;20434;-71
2021/04/13 09:33:05;;;;;;;2.40;1.00;;;20.70;38.50;;;;;;5002661;28;20423;-70
2021/04/13 09:35:59;;;;;;;5.20;0.80;;;20.70;38.40;;;;;;5006045;28;21827;-70
2021/04/13 09:38:52;;;;;;;0.80;0.70;;;20.80;38.60;;;;;;4984846;28;20453;-71
2021/04/13 09:41:23;;;;;;;3.70;0.90;;;20.80;38.50;;;;;;5002574;28;20420;-72
2021/04/13 09:43:56;;;;;;;2.53;1.10;;;20.80;38.40;;;;;;5002072;28;20475;-71
2021/04/13 09:46:29;;;;;;;3.80;1.20;;;20.80;37.90;;;;;;4990087;28;21581;-71
2021/04/13 09:49:04;;;;;;;4.27;1.20;;;20.80;37.90;;;;;;4990005;28;20434;-71
2021/04/13 09:51:37;;;;;;;5.00;1.60;;;20.80;38.70;;;;;;5000392;28;20428;-71
2021/04/13 09:54:17;;;;;;;3.30;1.07;;;20.80;37.80;;;;;;5000584;28;20414;-71
2021/04/13 09:57:05;;;;;;;1.88;0.90;;;20.80;38.10;;;;;;4994166;28;20768;-73
2021/04/13 09:59:56;;;;;;;2.00;1.30;;;20.80;38.10;;;;;;4999817;28;20413;-72
2021/04/13 10:02:34;;;;;;;3.53;0.82;;;20.80;38.00;;;;;;4971754;28;20421;-71
2021/04/13 10:05:01;;;;;;;2.70;0.90;;;20.80;37.80;;;;;;4985519;28;20498;-71
2021/04/13 10:07:35;;;;;;;1.83;1.08;;;20.80;37.50;;;;;;4985182;28;20560;-73
2021/04/13 10:10:04;;;;;;;1.92;0.70;;;20.90;37.40;;;;;;4996492;28;20429;-71
2021/04/13 10:12:40;;;;;;;1.40;1.02;;;20.90;37.40;;;;;;5003346;28;20419;-72
2021/04/13 10:15:16;;;;;;;2.67;1.10;;;20.90;37.60;;;;;;4999444;28;20410;-72
2021/04/13 10:17:54;;;;;;;2.17;0.95;;;20.90;37.90;;;;;;4984253;28;20769;-73
2021/04/13 10:20:29;;;;;;;3.17;0.80;;;20.90;38.00;;;;;;4995252;28;20419;-73
2021/04/13 10:23:23;;;;;;;1.90;0.90;;;20.90;38.00;;;;;;4999447;28;20407;-72
2021/04/13 10:26:06;;;;;;;2.88;0.93;;;20.90;38.10;;;;;;4995610;28;20500;-74
2021/04/13 10:29:00;;;;;;;3.70;0.85;;;20.90;38.10;;;;;;4998975;28;20416;-73
2021/04/13 10:32:03;;;;;;;0.90;0.80;;;20.90;38.10;;;;;;4998336;28;20405;-70
2021/04/13 10:35:14;;;;;;;1.95;0.90;;;20.90;38.70;;;;;;4994978;28;20394;-71
2021/04/13 10:38:31;;;;;;;3.10;1.30;;;20.80;38.60;;;;;;5001730;28;20414;-71
2021/04/13 10:41:38;;;;;;;3.13;1.00;;;20.80;38.60;;;;;;4964283;28;20442;-72
2021/04/13 10:44:18;;;;;;;1.70;0.88;;;20.70;38.50;;;;;;4986289;28;20437;-72
2021/04/13 10:46:49;;;;;;;1.98;1.00;;;20.70;38.50;;;;;;4984091;28;20572;-72
2021/04/13 10:49:33;;;;;;;4.78;1.10;;;20.60;38.40;;;;;;4993292;28;20421;-70
2021/04/13 10:52:25;;;;;;;1.98;1.10;;;20.60;38.40;;;;;;4966192;28;20511;-73
2021/04/13 10:55:18;;;;;;;3.30;1.00;;;20.60;38.40;;;;;;4985988;28;20407;-71
2021/04/13 10:58:05;;;;;;;3.13;0.90;;;20.70;38.50;;;;;;4962717;28;20413;-70
2021/04/13 11:00:37;;;;;;;1.13;0.90;;;20.70;38.40;;;;;;4977450;28;20484;-71
2021/04/13 11:03:48;;;;;;;1.08;0.75;;;20.70;38.50;;;;;;5001797;28;20414;-70
2021/04/13 11:06:58;;;;;;;2.03;0.90;;;20.70;38.50;;;;;;4994355;28;20417;-70
2021/04/13 11:10:00;;;;;;;1.30;0.80;;;20.80;38.60;;;;;;5004764;28;20411;-71
2021/04/13 11:12:46;;;;;;;2.30;0.93;;;20.80;38.50;;;;;;5001766;28;20419;-71
2021/04/13 11:15:45;;;;;;;2.65;0.80;;;20.80;38.50;;;;;;4991845;28;20409;-72
2021/04/13 11:18:36;;;;;;;2.25;0.90;;;20.80;38.50;;;;;;4915850;28;20426;-71
2021/04/13 11:21:26;;;;;;;1.50;0.90;;;20.80;38.60;;;;;;4998322;28;20423;-71
2021/04/13 11:24:15;;;;;;;2.60;1.00;;;20.80;38.30;;;;;;4967408;28;20425;-72
2021/04/13 11:27:18;;;;;;;2.72;0.80;;;20.80;38.20;;;;;;4985958;28;20411;-73
2021/04/13 11:30:35;;;;;;;1.10;0.77;;;20.80;37.90;;;;;;5000054;28;20966;-71
2021/04/13 11:33:28;;;;;;;1.42;0.95;;;20.80;38.00;;;;;;4937952;28;20428;-71
2021/04/13 11:35:59;;;;;;;1.90;0.90;;;20.80;38.00;;;;;;4939130;28;20436;-71
2021/04/13 11:38:35;;;;;;;2.20;0.90;;;20.80;37.80;;;;;;4984988;28;20427;-72
2021/04/13 11:41:15;;;;;;;2.60;1.10;;;20.80;37.80;;;;;;4997703;28;20945;-70
2021/04/13 11:43:44;;;;;;;1.83;0.70;;;20.80;37.70;;;;;;4988899;28;20413;-71
2021/04/13 11:46:12;;;;;;;2.40;1.10;;;20.80;37.70;;;;;;5001154;28;20428;-72
2021/04/13 11:48:43;;;;;;;2.28;1.10;;;20.80;37.70;;;;;;5005671;28;20440;-72
2021/04/13 11:51:13;;;;;;;1.60;1.00;;;20.80;37.60;;;;;;5003931;28;20438;-72
2021/04/13 11:53:41;;;;;;;1.70;0.80;;;20.80;37.60;;;;;;5003899;28;20796;-73
2021/04/13 11:56:33;;;;;;;2.85;1.10;;;20.80;37.60;;;;;;5000490;28;20424;-72
2021/04/13 11:59:21;;;;;;;2.42;0.85;;;20.80;37.80;;;;;;5002006;28;20421;-72
2021/04/13 12:01:47;;;;;;;2.50;0.90;;;20.70;37.90;;;;;;4999885;28;20407;-72
2021/04/13 12:04:15;;;;;;;2.25;1.08;;;20.70;38.20;;;;;;5000016;28;20872;-72
2021/04/13 12:06:53;;;;;;;3.90;1.08;;;20.70;38.00;;;;;;4993937;28;20409;-73
2021/04/13 12:09:39;;;;;;;3.05;1.13;;;20.80;37.80;;;;;;5004381;28;20422;-72
2021/04/13 12:12:05;;;;;;;1.50;0.90;;;20.80;38.20;;;;;;5003893;28;20418;-72
2021/04/13 12:14:39;;;;;;;2.65;0.90;;;20.80;37.90;;;;;;5003872;28;20523;-72
2021/04/13 12:17:30;;;;;;;4.95;1.00;;;20.70;37.70;;;;;;4998377;28;20918;-72
2021/04/13 12:20:22;;;;;;;2.00;0.87;;;20.80;37.80;;;;;;4995925;28;20428;-71
2021/04/13 12:22:49;;;;;;;2.50;1.00;;;20.80;37.80;;;;;;5000478;28;20808;-72
2021/04/13 12:25:35;;;;;;;2.67;0.90;;;20.80;37.80;;;;;;5005718;28;20479;-72
2021/04/13 12:28:03;;;;;;;2.40;1.20;;;20.80;37.50;;;;;;5001323;28;20434;-72
2021/04/13 12:30:56;;;;;;;2.45;0.90;;;20.80;37.60;;;;;;4998424;28;20453;-72
2021/04/13 12:33:48;;;;;;;2.65;0.80;;;20.80;37.80;;;;;;5004049;28;20826;-72
2021/04/13 12:36:45;;;;;;;3.10;1.00;;;20.70;37.80;;;;;;4988107;28;20420;-70
2021/04/13 12:39:12;;;;;;;3.97;1.10;;;20.70;38.10;;;;;;4985123;28;21107;-72
2021/04/13 12:41:59;;;;;;;6.13;0.88;;;20.70;38.10;;;;;;5002868;28;20415;-72
2021/04/13 12:44:27;;;;;;;1.48;0.85;;;20.70;38.20;;;;;;5001243;28;20409;-71
2021/04/13 12:46:53;;;;;;;2.85;1.05;;;20.70;38.10;;;;;;4981573;28;20445;-71
2021/04/13 12:49:30;;;;;;;2.10;0.90;;;20.70;38.40;;;;;;5003692;28;20428;-71
2021/04/13 12:51:59;;;;;;;2.08;0.90;;;20.70;38.10;;;;;;4968529;28;20424;-72
2021/04/13 12:54:30;;;;;;;2.67;0.88;;;20.60;38.30;;;;;;4994491;28;20414;-72
2021/04/13 12:56:58;;;;;;;1.55;0.85;;;20.60;38.40;;;;;;4987536;28;20891;-72
2021/04/13 12:59:26;;;;;;;2.85;0.93;;;20.60;38.40;;;;;;5001198;28;20431;-72
2021/04/13 13:01:52;;;;;;;1.25;0.70;;;20.60;38.40;;;;;;5008644;28;20438;-71
2021/04/13 13:04:21;;;;;;;2.58;0.80;;;20.70;38.50;;;;;;5017849;28;21198;-71
2021/04/13 13:06:48;;;;;;;3.30;0.93;;;20.70;38.50;;;;;;4998662;28;20778;-71
2021/04/13 13:09:24;;;;;;;2.10;0.63;;;20.70;38.40;;;;;;4997767;28;20491;-72
2021/04/13 13:11:57;;;;;;;1.85;0.85;;;20.70;38.50;;;;;;5002488;28;20433;-71
2021/04/13 13:14:24;;;;;;;2.83;0.60;;;20.80;38.60;;;;;;4998238;28;22304;-73
2021/04/13 13:16:54;;;;;;;1.35;0.70;;;20.80;38.30;;;;;;4975855;28;20408;-72
2021/04/13 13:19:25;;;;;;;4.53;0.90;;;20.80;37.90;;;;;;4997886;28;20448;-71